createdAt,value
2022-12-03T00:03:15.542Z,72.81
2022-12-03T00:08:15.372Z,72.79
2022-12-03T00:13:15.252Z,72.83
2022-12-03T00:18:15.211Z,72.82
2022-12-03T00:23:15.125Z,72.78
2022-12-03T00:28:15.073Z,72.80
2022-12-03T00:33:14.997Z,72.75
2022-12-03T00:38:14.935Z,72.74
2022-12-03T00:43:14.872Z,72.73
2022-12-03T00:48:14.826Z,72.72
2022-12-03T00:53:14.756Z,72.69
2022-12-03T00:58:14.693Z,72.69
2022-12-03T01:03:14.613Z,72.68
2022-12-03T01:08:39.371Z,72.36
2022-12-03T01:13:31.762Z,72.65
2022-12-03T01:18:31.712Z,72.82
2022-12-03T01:23:31.653Z,72.81
2022-12-03T01:28:31.573Z,72.76
2022-12-03T01:33:31.521Z,72.71
2022-12-03T01:38:31.434Z,72.71
2022-12-03T01:43:31.412Z,72.67
2022-12-03T01:48:31.312Z,72.70
2022-12-03T01:53:31.262Z,72.71
2022-12-03T01:58:31.186Z,72.66
2022-12-03T02:03:31.180Z,72.65
2022-12-03T02:08:31.062Z,72.63
2022-12-03T02:13:31.032Z,72.66
2022-12-03T02:18:30.948Z,72.64
2022-12-03T02:23:30.889Z,72.59
2022-12-03T02:28:30.817Z,72.56
2022-12-03T02:33:30.754Z,72.59
2022-12-03T02:38:30.675Z,72.63
2022-12-03T02:43:30.624Z,72.63
2022-12-03T02:48:30.557Z,72.62
2022-12-03T02:53:30.484Z,72.61
2022-12-03T02:58:30.413Z,72.63
2022-12-03T03:03:30.394Z,72.59
2022-12-03T03:08:30.270Z,72.55
2022-12-03T03:13:30.267Z,72.57
2022-12-03T03:18:30.147Z,72.53
2022-12-03T03:23:30.113Z,72.60
2022-12-03T03:28:30.045Z,72.62
2022-12-03T03:33:29.989Z,72.56
2022-12-03T03:38:29.915Z,72.55
2022-12-03T03:43:29.868Z,72.52
2022-12-03T03:48:29.785Z,72.52
2022-12-03T03:53:29.740Z,72.54
2022-12-03T03:58:29.641Z,72.54
2022-12-03T04:03:29.609Z,72.55
2022-12-03T04:08:29.524Z,72.53
2022-12-03T04:13:29.464Z,72.54
2022-12-03T04:18:29.409Z,72.52
2022-12-03T04:23:31.051Z,72.52
2022-12-03T04:28:29.258Z,72.47
2022-12-03T04:33:29.215Z,72.39
2022-12-03T04:38:29.145Z,72.39
2022-12-03T04:43:29.096Z,72.42
2022-12-03T04:48:28.996Z,72.42
2022-12-03T04:53:28.967Z,72.41
2022-12-03T04:58:28.875Z,72.37
2022-12-03T05:03:28.808Z,72.36
2022-12-03T05:08:28.755Z,72.30
2022-12-03T05:13:28.710Z,72.31
2022-12-03T05:18:38.045Z,71.93
2022-12-03T05:23:30.454Z,72.13
2022-12-03T05:28:30.378Z,72.29
2022-12-03T05:33:30.330Z,72.36
2022-12-03T05:38:30.252Z,72.32
2022-12-03T05:43:30.202Z,72.34
2022-12-03T05:48:30.104Z,72.32
2022-12-03T05:53:30.078Z,72.29
2022-12-03T05:58:30.001Z,72.27
2022-12-03T06:03:30.057Z,72.20
2022-12-03T06:08:29.866Z,72.21
2022-12-03T06:13:29.814Z,72.26
2022-12-03T06:18:29.756Z,72.28
2022-12-03T06:23:29.705Z,72.22
2022-12-03T06:28:29.596Z,72.19
2022-12-03T06:33:29.556Z,72.18
2022-12-03T06:38:29.481Z,72.18
2022-12-03T06:43:29.432Z,72.21
2022-12-03T06:48:29.365Z,72.20
2022-12-03T06:53:29.314Z,72.18
2022-12-03T06:58:29.235Z,72.18
2022-12-03T07:03:29.151Z,72.18
2022-12-03T07:08:29.101Z,72.14
2022-12-03T07:13:29.052Z,72.11
2022-12-03T07:18:28.992Z,72.04
2022-12-03T07:23:28.919Z,71.96
2022-12-03T07:28:28.845Z,71.98
2022-12-03T07:33:28.805Z,71.95
2022-12-03T07:38:28.690Z,71.92
2022-12-03T07:43:28.658Z,71.87
2022-12-03T07:48:28.604Z,71.82
2022-12-03T07:53:28.546Z,71.81
2022-12-03T07:58:28.465Z,71.71
2022-12-03T08:03:28.419Z,71.71
2022-12-03T08:08:28.334Z,71.63
2022-12-03T08:13:28.292Z,71.60
2022-12-03T08:18:28.178Z,71.55
2022-12-03T08:23:28.158Z,71.41
2022-12-03T08:28:28.069Z,71.40
2022-12-03T08:33:28.018Z,71.29
2022-12-03T08:38:27.956Z,71.20
2022-12-03T08:43:27.905Z,71.13
2022-12-03T08:48:27.810Z,71.18
2022-12-03T08:53:27.767Z,71.17
2022-12-03T08:58:27.686Z,71.19
2022-12-03T09:03:27.645Z,71.12
2022-12-03T09:08:27.549Z,71.10
2022-12-03T09:13:27.517Z,71.07
2022-12-03T09:18:27.427Z,70.91
2022-12-03T09:23:27.378Z,70.87
2022-12-03T09:28:27.298Z,70.88
2022-12-03T09:33:27.247Z,70.69
2022-12-03T09:38:27.184Z,70.70
2022-12-03T09:43:49.377Z,70.58
2022-12-03T09:48:28.052Z,70.53
2022-12-03T09:53:26.984Z,70.60
2022-12-03T09:58:31.705Z,70.49
2022-12-03T10:03:30.029Z,70.51
2022-12-03T10:08:30.843Z,70.53
2022-12-03T10:13:27.747Z,70.49
2022-12-03T10:18:30.404Z,70.45
2022-12-03T10:23:26.618Z,70.37
2022-12-03T10:28:26.540Z,70.30
2022-12-03T10:33:26.491Z,69.99
2022-12-03T10:38:26.442Z,69.88
2022-12-03T10:43:26.353Z,69.77
2022-12-03T10:48:26.302Z,69.71
2022-12-03T10:53:26.221Z,69.49
2022-12-03T10:58:26.151Z,69.19
2022-12-03T11:03:26.311Z,69.15
2022-12-03T11:08:26.036Z,69.23
2022-12-03T11:13:25.998Z,69.09
2022-12-03T11:18:25.876Z,69.06
2022-12-03T11:23:25.850Z,69.12
2022-12-03T11:28:25.758Z,69.29
2022-12-03T11:33:25.705Z,69.47
2022-12-03T11:38:25.636Z,69.73
2022-12-03T11:43:25.605Z,69.57
2022-12-03T11:48:25.527Z,69.47
2022-12-03T11:53:25.477Z,69.30
2022-12-03T11:58:25.362Z,69.24
2022-12-03T12:03:25.464Z,69.19
2022-12-03T12:08:25.259Z,69.18
2022-12-03T12:13:25.195Z,69.15
2022-12-03T12:18:25.138Z,69.07
2022-12-03T12:23:25.137Z,69.12
2022-12-03T12:28:24.972Z,69.13
2022-12-03T12:33:24.962Z,69.12
2022-12-03T12:38:24.868Z,69.23
2022-12-03T12:43:25.132Z,69.38
2022-12-03T12:48:24.749Z,69.42
2022-12-03T12:53:24.698Z,69.37
2022-12-03T12:58:24.615Z,69.33
2022-12-03T13:03:24.564Z,69.28
2022-12-03T13:08:24.593Z,69.31
2022-12-03T13:13:24.413Z,69.25
2022-12-03T13:18:24.379Z,69.40
2022-12-03T13:23:24.317Z,69.45
2022-12-03T13:28:24.217Z,69.55
2022-12-03T13:33:24.210Z,69.60
2022-12-03T13:38:24.103Z,69.64
2022-12-03T13:43:24.029Z,69.55
2022-12-03T13:48:23.980Z,69.63
2022-12-03T13:53:23.942Z,69.45
2022-12-03T13:58:23.851Z,69.31
2022-12-03T14:03:23.810Z,69.21
2022-12-03T14:08:23.731Z,69.17
2022-12-03T14:13:23.661Z,69.17
2022-12-03T14:18:23.607Z,69.27
2022-12-03T14:23:23.611Z,69.39
2022-12-03T14:28:23.447Z,69.52
2022-12-03T14:33:23.414Z,69.65
2022-12-03T14:38:23.348Z,69.72
2022-12-03T14:43:23.269Z,69.92
2022-12-03T14:48:23.220Z,69.99
2022-12-03T14:53:27.195Z,70.04
2022-12-03T14:58:23.051Z,70.04
2022-12-03T15:03:24.178Z,70.13
2022-12-03T15:08:22.944Z,70.11
2022-12-03T15:13:22.876Z,70.27
2022-12-03T15:18:22.841Z,70.43
2022-12-03T15:23:22.810Z,70.48
2022-12-03T15:28:22.680Z,70.53
2022-12-03T15:33:22.657Z,70.48
2022-12-03T15:38:22.570Z,70.51
2022-12-03T15:43:22.544Z,70.60
2022-12-03T15:48:22.425Z,70.59
2022-12-03T15:53:22.377Z,70.68
2022-12-03T15:58:22.297Z,70.69
2022-12-03T16:03:22.349Z,70.75
2022-12-03T16:08:22.278Z,70.78
2022-12-03T16:13:22.157Z,70.79
2022-12-03T16:18:22.049Z,70.82
2022-12-03T16:23:21.996Z,70.82
2022-12-03T16:28:21.918Z,70.85
2022-12-03T16:33:27.241Z,70.89
2022-12-03T16:38:22.803Z,70.87
2022-12-03T16:43:21.735Z,70.86
2022-12-03T16:48:21.726Z,70.86
2022-12-03T16:53:21.615Z,70.91
2022-12-03T16:58:21.626Z,70.90
2022-12-03T17:03:21.606Z,70.94
2022-12-03T17:08:21.475Z,70.93
2022-12-03T17:13:21.347Z,70.93
2022-12-03T17:18:21.291Z,71.00
2022-12-03T17:23:21.245Z,70.98
2022-12-03T17:28:21.156Z,71.00
2022-12-03T17:33:21.151Z,71.00
2022-12-03T17:38:21.030Z,71.03
2022-12-03T17:43:20.960Z,71.04
2022-12-03T17:48:20.903Z,71.05
2022-12-03T17:53:20.866Z,71.09
2022-12-03T17:58:20.777Z,71.12
2022-12-03T18:03:20.751Z,71.11
2022-12-03T18:08:20.822Z,71.09
2022-12-03T18:13:20.600Z,71.10
2022-12-03T18:18:20.523Z,71.08
2022-12-03T18:23:20.479Z,71.10
2022-12-03T18:28:20.417Z,71.10
2022-12-03T18:33:20.391Z,71.10
2022-12-03T18:38:20.252Z,71.16
2022-12-03T18:43:20.199Z,71.15
2022-12-03T18:48:20.143Z,71.14
2022-12-03T18:53:20.227Z,71.17
2022-12-03T18:58:20.005Z,71.19
2022-12-03T19:03:20.111Z,71.22
2022-12-03T19:08:19.940Z,71.24
2022-12-03T19:13:19.874Z,71.25
2022-12-03T19:18:19.728Z,71.22
2022-12-03T19:23:19.719Z,71.24
2022-12-03T19:28:19.605Z,71.24
2022-12-03T19:33:23.771Z,71.28
2022-12-03T19:38:20.483Z,71.28
2022-12-03T19:43:19.441Z,71.28
2022-12-03T19:48:19.362Z,71.30
2022-12-03T19:53:19.338Z,71.31
2022-12-03T19:58:19.212Z,71.35
2022-12-03T20:03:19.173Z,71.33
2022-12-03T20:08:19.177Z,71.36
2022-12-03T20:13:19.061Z,71.42
2022-12-03T20:18:18.971Z,71.42
2022-12-03T20:23:18.930Z,71.45
2022-12-03T20:28:18.861Z,71.47
2022-12-03T20:33:18.820Z,71.48
2022-12-03T20:38:18.725Z,71.49
2022-12-03T20:43:18.675Z,71.50
2022-12-03T20:48:18.669Z,71.54
2022-12-03T20:53:24.793Z,71.52
2022-12-03T20:58:19.462Z,71.51
2022-12-03T21:03:18.408Z,71.52
2022-12-03T21:08:33.054Z,71.54
2022-12-03T21:13:19.297Z,71.55
2022-12-03T21:18:18.239Z,71.55
2022-12-03T21:23:18.156Z,71.55
2022-12-03T21:28:18.072Z,71.55
2022-12-03T21:33:18.033Z,71.55
2022-12-03T21:38:17.928Z,71.56
2022-12-03T21:43:17.903Z,71.54
2022-12-03T21:48:17.859Z,71.54
2022-12-03T21:53:17.780Z,71.54
2022-12-03T21:58:17.720Z,71.54
2022-12-03T22:03:17.710Z,71.52
2022-12-03T22:08:17.615Z,71.50
2022-12-03T22:13:17.513Z,71.51
2022-12-03T22:18:17.478Z,71.49
2022-12-03T22:23:17.364Z,71.49
2022-12-03T22:28:17.321Z,71.50
2022-12-03T22:33:17.268Z,71.47
2022-12-03T22:38:18.620Z,71.45
2022-12-03T22:43:17.142Z,71.43
2022-12-03T22:48:17.059Z,71.39
2022-12-03T22:53:17.016Z,71.43
2022-12-03T22:58:16.920Z,71.35
2022-12-03T23:03:16.889Z,71.38
2022-12-03T23:08:16.859Z,71.36
2022-12-03T23:13:16.864Z,71.35
2022-12-03T23:18:16.659Z,71.35
2022-12-03T23:23:16.620Z,71.34
2022-12-03T23:28:16.549Z,71.32
2022-12-03T23:33:16.466Z,71.32
2022-12-03T23:38:16.425Z,71.33
2022-12-03T23:43:16.381Z,71.30
2022-12-03T23:48:16.263Z,71.34
2022-12-03T23:53:16.276Z,71.30
2022-12-03T23:58:16.181Z,71.28
